createdAt,value
2022-10-01T00:04:47.161Z,4.43
2022-10-01T00:09:50.224Z,6.27
2022-10-01T00:14:54.626Z,4.00
2022-10-01T00:19:57.955Z,3.90
2022-10-01T00:25:05.511Z,4.27
2022-10-01T00:30:11.161Z,7.20
2022-10-01T00:35:14.642Z,6.30
2022-10-01T00:40:19.458Z,6.53
2022-10-01T00:45:24.033Z,8.70
2022-10-01T00:50:33.319Z,4.60
2022-10-01T00:55:39.102Z,5.57
2022-10-01T01:00:44.386Z,4.57
2022-10-01T01:05:48.060Z,3.83
2022-10-01T01:10:58.069Z,4.37
2022-10-01T01:16:07.211Z,4.10
2022-10-01T01:21:20.514Z,4.13
2022-10-01T01:26:34.664Z,3.37
2022-10-01T01:31:46.410Z,3.63
2022-10-01T01:36:54.535Z,3.23
2022-10-01T01:42:01.936Z,3.43
2022-10-01T01:47:10.584Z,4.43
2022-10-01T01:52:16.143Z,2.93
2022-10-01T01:57:21.132Z,2.70
2022-10-01T02:02:33.241Z,2.67
2022-10-01T02:07:57.276Z,2.37
2022-10-01T02:13:15.391Z,2.50
2022-10-01T02:18:29.590Z,3.17
2022-10-01T02:23:37.304Z,2.90
2022-10-01T02:28:42.294Z,2.30
2022-10-01T02:33:48.367Z,2.30
2022-10-01T02:38:53.486Z,2.40
2022-10-01T02:44:00.733Z,2.00
2022-10-01T02:49:05.523Z,1.83
2022-10-01T02:54:14.783Z,2.47
2022-10-01T02:59:17.910Z,2.13
2022-10-01T03:04:22.250Z,3.00
2022-10-01T03:09:25.558Z,1.67
2022-10-01T03:14:28.842Z,1.97
2022-10-01T03:19:33.254Z,1.87
2022-10-01T03:24:36.276Z,1.80
2022-10-01T03:29:39.325Z,2.00
2022-10-01T03:34:43.762Z,2.40
2022-10-01T03:39:46.701Z,2.10
2022-10-01T03:44:49.779Z,2.27
2022-10-01T03:49:54.114Z,2.10
2022-10-01T03:54:57.057Z,2.60
2022-10-01T04:00:00.101Z,4.70
2022-10-01T04:05:05.458Z,2.70
2022-10-01T04:10:09.555Z,2.50
2022-10-01T04:15:12.633Z,2.43
2022-10-01T04:20:17.099Z,2.80
2022-10-01T04:25:20.352Z,2.97
2022-10-01T04:30:23.650Z,2.23
2022-10-01T04:35:28.429Z,2.60
2022-10-01T04:40:31.794Z,3.20
2022-10-01T04:45:34.699Z,5.37
2022-10-01T04:50:39.031Z,3.17
2022-10-01T04:55:42.985Z,3.40
2022-10-01T05:00:46.049Z,3.50
2022-10-01T05:05:50.457Z,3.63
2022-10-01T05:10:53.411Z,3.50
2022-10-01T05:15:56.510Z,3.60
2022-10-01T05:21:06.022Z,3.60
2022-10-01T05:26:09.525Z,4.63
2022-10-01T05:31:13.464Z,4.80
2022-10-01T05:36:18.028Z,4.00
2022-10-01T05:41:21.048Z,5.23
2022-10-01T05:46:24.120Z,5.00
2022-10-01T05:51:29.522Z,4.50
2022-10-01T05:56:32.812Z,5.33
2022-10-01T06:01:36.249Z,7.20
2022-10-01T06:06:40.914Z,5.20
2022-10-01T06:11:44.109Z,5.07
2022-10-01T06:16:47.912Z,4.70
2022-10-01T06:21:53.115Z,5.03
2022-10-01T06:26:56.491Z,4.70
2022-10-01T06:31:59.807Z,7.67
2022-10-01T06:37:04.133Z,7.93
2022-10-01T06:42:08.482Z,8.17
2022-10-01T06:47:11.514Z,7.83
2022-10-01T06:52:33.654Z,6.40
2022-10-01T06:57:36.766Z,7.53
2022-10-01T07:02:40.312Z,6.47
2022-10-01T07:07:45.290Z,7.20
2022-10-01T07:12:49.998Z,5.20
2022-10-01T07:17:53.785Z,5.93
2022-10-01T07:23:00.697Z,9.80
2022-10-01T07:28:07.125Z,9.13
2022-10-01T07:33:10.384Z,10.63
2022-10-01T07:38:14.791Z,7.13
2022-10-01T07:43:17.780Z,4.00
2022-10-01T07:48:21.253Z,4.17
2022-10-01T07:53:26.323Z,6.30
2022-10-01T07:58:29.422Z,6.40
2022-10-01T08:03:32.740Z,4.50
2022-10-01T08:08:37.241Z,3.80
2022-10-01T08:13:40.317Z,3.83
2022-10-01T08:18:43.318Z,3.63
2022-10-01T08:23:47.739Z,3.17
2022-10-01T08:28:50.779Z,3.03
2022-10-01T08:33:53.927Z,4.80
2022-10-01T08:39:00.352Z,4.70
2022-10-01T08:44:06.433Z,8.47
2022-10-01T08:49:18.656Z,7.65
2022-10-01T08:54:32.437Z,5.18
2022-10-01T08:59:41.299Z,7.93
2022-10-01T09:04:44.463Z,6.80
2022-10-01T09:10:01.594Z,7.47
2022-10-01T09:15:19.442Z,12.30
2022-10-01T09:20:27.032Z,6.63
2022-10-01T09:25:34.198Z,4.88
2022-10-01T09:30:38.602Z,7.45
2022-10-01T09:35:45.407Z,8.48
2022-10-01T09:40:54.949Z,7.88
2022-10-01T09:45:58.117Z,10.40
2022-10-01T09:51:10.220Z,17.45
2022-10-01T09:56:20.347Z,8.63
2022-10-01T10:01:30.951Z,6.93
2022-10-01T10:06:34.210Z,7.10
2022-10-01T10:11:42.953Z,7.68
2022-10-01T10:16:47.890Z,8.48
2022-10-01T10:21:53.147Z,6.72
2022-10-01T10:47:34.275Z,8.40
2022-10-01T10:52:40.786Z,8.77
2022-10-01T10:57:47.151Z,9.57
2022-10-01T11:02:56.795Z,4.07
2022-10-01T11:08:05.032Z,13.52
2022-10-01T11:13:34.225Z,5.25
2022-10-01T11:18:55.957Z,5.97
2022-10-01T11:24:23.761Z,9.43
2022-10-01T11:29:39.222Z,8.23
2022-10-01T11:35:00.635Z,7.25
2022-10-01T11:40:14.342Z,10.65
2022-10-01T11:45:24.267Z,8.57
2022-10-01T11:50:35.136Z,10.55
2022-10-01T11:56:04.517Z,9.00
2022-10-01T12:02:00.785Z,7.15
2022-10-01T12:07:14.807Z,8.07
2022-10-01T12:12:22.496Z,8.27
2022-10-01T12:17:34.179Z,5.75
2022-10-01T12:22:40.836Z,7.22
2022-10-01T12:27:55.650Z,6.20
2022-10-01T12:33:18.778Z,7.30
2022-10-01T12:38:40.899Z,6.45
2022-10-01T12:44:09.564Z,8.30
2022-10-01T12:49:23.547Z,8.45
2022-10-01T12:54:41.854Z,10.38
2022-10-01T12:59:59.551Z,7.20
2022-10-01T13:05:29.379Z,9.05
2022-10-01T13:10:52.786Z,9.93
2022-10-01T13:16:03.266Z,5.55
2022-10-01T13:21:13.311Z,6.05
2022-10-01T13:26:24.874Z,8.05
2022-10-01T13:31:38.836Z,4.30
2022-10-01T13:36:42.092Z,6.95
2022-10-01T13:41:48.079Z,6.53
2022-10-01T13:46:54.537Z,7.57
2022-10-01T13:51:59.053Z,8.60
2022-10-01T13:57:11.561Z,9.75
2022-10-01T14:02:32.135Z,7.40
2022-10-01T14:07:40.057Z,6.88
2022-10-01T14:13:05.370Z,7.15
2022-10-01T14:18:12.657Z,6.38
2022-10-01T14:23:20.898Z,8.93
2022-10-01T14:28:43.919Z,9.57
2022-10-01T14:34:10.447Z,8.02
2022-10-01T14:39:16.630Z,7.68
2022-10-01T14:44:24.553Z,5.03
2022-10-01T14:49:30.136Z,8.27
2022-10-01T14:54:42.990Z,9.07
2022-10-01T14:59:52.735Z,8.60
2022-10-01T15:04:57.685Z,7.57
2022-10-01T15:10:07.306Z,7.75
2022-10-01T15:15:20.703Z,6.95
2022-10-01T15:20:23.883Z,9.15
2022-10-01T15:25:31.506Z,7.20
2022-10-01T15:36:08.706Z,7.25
2022-10-01T15:41:35.099Z,5.80
2022-10-01T15:46:42.823Z,7.38
2022-10-01T15:52:12.292Z,8.07
2022-10-01T15:57:21.938Z,8.43
2022-10-01T16:02:30.003Z,10.20
2022-10-01T16:07:35.427Z,5.78
2022-10-01T16:12:38.815Z,7.45
2022-10-01T16:17:55.949Z,8.90
2022-10-01T16:23:40.063Z,6.88
2022-10-01T16:28:43.324Z,8.07
2022-10-01T16:33:49.690Z,8.50
2022-10-01T16:38:56.275Z,11.68
2022-10-01T16:44:02.157Z,8.38
2022-10-01T16:49:12.725Z,8.70
2022-10-01T16:54:22.446Z,7.80
2022-10-01T16:59:25.536Z,7.57
2022-10-01T17:04:33.984Z,9.23
2022-10-01T17:09:37.314Z,9.25
2022-10-01T17:14:40.945Z,8.88
2022-10-01T17:19:45.237Z,12.60
2022-10-01T17:24:48.771Z,7.18
2022-10-01T17:29:52.213Z,7.05
2022-10-01T17:34:58.874Z,9.38
2022-10-01T17:40:02.103Z,4.82
2022-10-01T17:45:08.275Z,10.27
2022-10-01T17:50:13.828Z,5.25
2022-10-01T17:55:17.279Z,10.27
2022-10-01T18:00:21.111Z,7.57
2022-10-01T18:05:25.528Z,5.95
2022-10-01T18:10:28.591Z,6.47
2022-10-01T18:15:31.561Z,8.45
2022-10-01T18:20:38.763Z,8.43
2022-10-01T18:25:42.004Z,8.45
2022-10-01T18:30:45.067Z,14.95
2022-10-01T18:35:59.302Z,8.88
2022-10-01T18:41:10.155Z,17.40
2022-10-01T18:46:25.302Z,12.05
2022-10-01T18:51:40.659Z,10.43
2022-10-01T18:56:53.040Z,12.33
2022-10-01T19:02:14.178Z,6.32
2022-10-01T19:07:33.452Z,9.80
2022-10-01T19:12:47.947Z,8.90
2022-10-01T19:18:06.286Z,11.48
2022-10-01T19:23:35.222Z,9.98
2022-10-01T19:28:50.656Z,9.65
2022-10-01T19:34:01.462Z,13.07
2022-10-01T19:39:11.767Z,11.05
2022-10-01T19:44:18.466Z,8.57
2022-10-01T19:49:27.743Z,10.57
2022-10-01T19:54:34.947Z,10.23
2022-10-01T19:59:38.243Z,9.00
2022-10-01T20:04:52.686Z,9.80
2022-10-01T20:10:05.800Z,13.20
2022-10-01T20:15:21.787Z,14.17
2022-10-01T20:20:33.426Z,14.57
2022-10-01T20:25:49.118Z,12.10
2022-10-01T20:31:01.342Z,12.33
2022-10-01T20:36:17.628Z,15.40
2022-10-01T20:41:25.017Z,13.27
2022-10-01T20:46:33.750Z,16.47
2022-10-01T20:51:46.018Z,13.90
2022-10-01T20:57:01.726Z,17.30
2022-10-01T21:02:19.028Z,11.27
2022-10-01T21:07:37.304Z,12.83
2022-10-01T21:12:49.128Z,20.47
2022-10-01T21:18:06.684Z,16.93
2022-10-01T21:23:22.537Z,18.10
2022-10-01T21:28:57.388Z,14.93
2022-10-01T21:34:03.963Z,19.83
2022-10-01T21:39:14.661Z,12.63
2022-10-01T21:44:52.762Z,14.80
2022-10-01T21:50:06.178Z,13.57
2022-10-01T21:55:37.393Z,16.97
2022-10-01T22:00:42.069Z,17.77
2022-10-01T22:05:51.862Z,17.30
2022-10-01T22:10:59.863Z,15.80
2022-10-01T22:16:09.799Z,15.00
2022-10-01T22:21:14.961Z,16.17
2022-10-01T22:26:22.409Z,19.93
2022-10-01T22:31:31.952Z,15.80
2022-10-01T22:36:40.512Z,8.63
2022-10-01T22:41:47.984Z,4.93
2022-10-01T22:47:30.472Z,5.30
2022-10-01T22:52:41.832Z,4.87
2022-10-01T22:58:07.232Z,9.03
2022-10-01T23:03:20.495Z,4.43
2022-10-01T23:08:40.595Z,4.60
2022-10-01T23:13:53.227Z,5.50
2022-10-01T23:19:08.283Z,5.77
2022-10-01T23:24:26.649Z,4.53
2022-10-01T23:29:47.728Z,3.87
2022-10-01T23:34:56.874Z,5.47
2022-10-01T23:40:07.520Z,4.60
2022-10-01T23:45:20.031Z,3.07
2022-10-01T23:50:32.169Z,3.30
2022-10-01T23:56:03.617Z,3.97
